createdAt,value
2018-02-18T00:00:01.332Z,1.20
2018-02-18T00:01:04.565Z,1.20
2018-02-18T00:02:07.776Z,1.20
2018-02-18T00:03:11.071Z,1.10
2018-02-18T00:04:14.328Z,1.10
2018-02-18T00:05:17.589Z,1.00
2018-02-18T00:06:20.840Z,1.00
2018-02-18T00:07:24.866Z,1.10
2018-02-18T00:08:28.114Z,1.00
2018-02-18T00:09:32.111Z,1.00
2018-02-18T00:10:36.109Z,0.90
2018-02-18T00:11:40.140Z,0.90
2018-02-18T00:12:43.374Z,0.90
2018-02-18T00:13:48.145Z,1.00
2018-02-18T00:14:58.010Z,1.00
2018-02-18T00:16:01.227Z,1.00
2018-02-18T00:17:05.290Z,1.10
2018-02-18T00:18:08.568Z,1.10
2018-02-18T00:19:11.769Z,1.10
2018-02-18T00:20:15.001Z,1.20
2018-02-18T00:21:18.255Z,1.30
2018-02-18T00:22:21.711Z,1.30
2018-02-18T00:23:24.941Z,1.50
2018-02-18T00:24:28.348Z,1.50
2018-02-18T00:25:31.637Z,1.30
2018-02-18T00:26:34.916Z,1.30
2018-02-18T00:27:38.213Z,1.20
2018-02-18T00:28:41.444Z,1.20
2018-02-18T00:29:44.762Z,1.10
2018-02-18T00:30:48.021Z,1.10
2018-02-18T00:31:51.222Z,1.10
2018-02-18T00:32:55.228Z,1.10
2018-02-18T00:33:59.232Z,1.20
2018-02-18T00:35:02.485Z,1.10
2018-02-18T00:36:05.749Z,1.20
2018-02-18T00:37:08.942Z,1.30
2018-02-18T00:38:12.225Z,1.30
2018-02-18T00:39:15.480Z,1.40
2018-02-18T00:40:18.686Z,1.50
2018-02-18T00:41:22.016Z,1.60
2018-02-18T00:42:25.261Z,1.60
2018-02-18T00:43:28.549Z,1.50
2018-02-18T00:44:31.757Z,1.40
2018-02-18T00:45:35.746Z,1.20
2018-02-18T00:46:39.731Z,1.30
2018-02-18T00:47:43.015Z,1.30
2018-02-18T00:48:46.264Z,1.40
2018-02-18T00:49:49.477Z,1.30
2018-02-18T00:50:52.737Z,1.30
2018-02-18T00:51:55.981Z,1.40
2018-02-18T00:52:59.969Z,1.40
2018-02-18T00:54:04.039Z,1.50
2018-02-18T00:55:07.263Z,1.50
2018-02-18T00:56:11.273Z,1.40
2018-02-18T00:57:14.603Z,1.30
2018-02-18T00:58:17.818Z,1.40
2018-02-18T00:59:21.065Z,1.30
2018-02-18T01:00:24.283Z,1.40
2018-02-18T01:01:27.514Z,1.50
2018-02-18T01:02:30.722Z,1.40
2018-02-18T01:03:33.958Z,1.40
2018-02-18T01:04:37.179Z,1.30
2018-02-18T01:05:40.522Z,1.20
2018-02-18T01:06:43.749Z,1.20
2018-02-18T01:07:46.985Z,1.20
2018-02-18T01:08:50.248Z,1.20
2018-02-18T01:09:54.285Z,1.30
2018-02-18T01:10:57.542Z,1.30
2018-02-18T01:12:01.533Z,1.20
2018-02-18T01:13:05.526Z,1.20
2018-02-18T01:14:09.497Z,1.10
2018-02-18T01:15:12.733Z,1.10
2018-02-18T01:16:15.958Z,1.00
2018-02-18T01:17:19.254Z,1.10
2018-02-18T01:18:22.468Z,1.10
2018-02-18T01:19:26.450Z,1.10
2018-02-18T01:20:29.686Z,1.10
2018-02-18T01:21:32.888Z,1.10
2018-02-18T01:22:36.154Z,1.10
2018-02-18T01:23:39.365Z,1.20
2018-02-18T01:24:42.596Z,1.20
2018-02-18T01:25:48.292Z,1.20
2018-02-18T01:26:51.527Z,1.20
2018-02-18T01:27:54.745Z,1.30
2018-02-18T01:28:57.982Z,1.40
2018-02-18T01:30:01.962Z,1.20
2018-02-18T01:31:05.955Z,1.10
2018-02-18T01:32:09.170Z,1.10
2018-02-18T01:33:12.404Z,1.20
2018-02-18T01:34:15.634Z,1.20
2018-02-18T01:35:18.863Z,1.20
2018-02-18T01:36:22.073Z,1.30
2018-02-18T01:37:26.092Z,1.30
2018-02-18T01:38:29.325Z,1.40
2018-02-18T01:39:32.592Z,1.30
2018-02-18T01:40:37.339Z,1.20
2018-02-18T01:41:41.657Z,1.30
2018-02-18T01:42:44.926Z,1.20
2018-02-18T01:43:48.125Z,1.30
2018-02-18T01:44:51.371Z,1.30
2018-02-18T01:45:54.598Z,1.40
2018-02-18T01:46:57.806Z,1.40
2018-02-18T01:48:01.042Z,1.40
2018-02-18T01:49:04.263Z,1.30
2018-02-18T01:50:28.969Z,1.20
2018-02-18T01:51:32.185Z,1.20
2018-02-18T01:52:35.519Z,1.30
2018-02-18T01:53:38.759Z,1.40
2018-02-18T01:54:41.990Z,1.40
2018-02-18T01:55:45.218Z,1.40
2018-02-18T01:56:48.442Z,1.30
2018-02-18T01:57:52.449Z,1.40
2018-02-18T01:58:55.685Z,1.40
2018-02-18T01:59:58.884Z,1.40
2018-02-18T02:01:02.103Z,1.50
2018-02-18T02:02:05.341Z,1.50
2018-02-18T02:03:08.564Z,1.50
2018-02-18T02:04:11.820Z,1.60
2018-02-18T02:05:15.039Z,1.60
2018-02-18T02:06:18.253Z,1.50
2018-02-18T02:07:21.704Z,1.50
2018-02-18T02:08:25.683Z,1.50
2018-02-18T02:09:29.755Z,1.50
2018-02-18T02:10:32.956Z,1.50
2018-02-18T02:11:36.958Z,1.40
2018-02-18T02:12:40.229Z,1.40
2018-02-18T02:13:43.507Z,1.40
2018-02-18T02:14:46.739Z,1.50
2018-02-18T02:15:49.982Z,1.50
2018-02-18T02:16:53.219Z,1.60
2018-02-18T02:17:56.437Z,1.60
2018-02-18T02:18:59.662Z,1.60
2018-02-18T02:20:02.898Z,1.50
2018-02-18T02:21:06.117Z,1.50
2018-02-18T02:22:10.124Z,1.20
2018-02-18T02:23:14.114Z,1.10
2018-02-18T02:24:18.112Z,1.00
2018-02-18T02:25:22.109Z,1.10
2018-02-18T02:26:26.115Z,1.20
2018-02-18T02:27:30.116Z,1.30
2018-02-18T02:28:34.116Z,1.30
2018-02-18T02:29:37.382Z,1.30
2018-02-18T02:30:41.381Z,1.40
2018-02-18T02:31:44.610Z,1.40
2018-02-18T02:32:47.814Z,1.40
2018-02-18T02:33:51.041Z,1.30
2018-02-18T02:34:55.026Z,1.30
2018-02-18T02:35:58.246Z,1.30
2018-02-18T02:37:02.245Z,1.20
2018-02-18T02:38:06.241Z,1.20
2018-02-18T02:39:10.280Z,1.10
2018-02-18T02:40:13.512Z,1.10
2018-02-18T02:41:17.492Z,1.20
2018-02-18T02:42:21.548Z,1.20
2018-02-18T02:43:24.853Z,1.20
2018-02-18T02:44:28.094Z,1.30
2018-02-18T02:45:32.087Z,1.20
2018-02-18T02:46:36.066Z,1.10
2018-02-18T02:47:40.104Z,1.00
2018-02-18T02:48:44.081Z,1.10
2018-02-18T02:49:47.305Z,1.10
2018-02-18T02:50:50.536Z,1.10
2018-02-18T02:51:54.549Z,0.90
2018-02-18T02:52:58.540Z,0.90
2018-02-18T02:54:01.774Z,0.90
2018-02-18T02:55:04.994Z,0.90
2018-02-18T02:56:08.226Z,1.00
2018-02-18T02:57:12.228Z,1.10
2018-02-18T02:58:15.462Z,1.00
2018-02-18T02:59:18.788Z,1.00
2018-02-18T03:00:22.049Z,1.00
2018-02-18T03:01:25.267Z,1.00
2018-02-18T03:02:28.483Z,0.90
2018-02-18T03:03:31.713Z,0.90
2018-02-18T03:04:35.703Z,1.00
2018-02-18T03:05:39.721Z,1.00
2018-02-18T03:06:43.706Z,1.00
2018-02-18T03:07:47.703Z,1.10
2018-02-18T03:08:51.719Z,1.10
2018-02-18T03:09:55.710Z,1.10
2018-02-18T03:10:59.700Z,1.10
2018-02-18T03:12:02.917Z,1.10
2018-02-18T03:13:06.159Z,1.10
2018-02-18T03:14:09.373Z,1.00
2018-02-18T03:15:13.343Z,1.10
2018-02-18T03:16:16.609Z,1.10
2018-02-18T03:17:19.805Z,1.10
2018-02-18T03:18:23.024Z,1.10
2018-02-18T03:19:26.242Z,1.00
2018-02-18T03:20:29.469Z,1.00
2018-02-18T03:21:33.464Z,1.10
2018-02-18T03:22:37.451Z,1.10
2018-02-18T03:23:40.666Z,1.10
2018-02-18T03:24:44.723Z,1.20
2018-02-18T03:25:47.909Z,1.20
2018-02-18T03:26:51.124Z,1.30
2018-02-18T03:27:55.114Z,1.20
2018-02-18T03:28:58.321Z,1.20
2018-02-18T03:30:01.599Z,1.20
2018-02-18T03:31:04.820Z,1.10
2018-02-18T03:32:08.036Z,1.20
2018-02-18T03:33:11.333Z,1.20
2018-02-18T03:34:16.032Z,1.10
2018-02-18T03:35:19.309Z,1.10
2018-02-18T03:36:22.523Z,1.10
2018-02-18T03:37:25.739Z,1.00
2018-02-18T03:38:28.957Z,1.00
2018-02-18T03:39:32.172Z,1.00
2018-02-18T03:40:36.175Z,1.10
2018-02-18T03:41:40.141Z,1.10
2018-02-18T03:42:43.387Z,1.10
2018-02-18T03:43:46.657Z,1.10
2018-02-18T03:44:49.869Z,1.10
2018-02-18T03:45:53.081Z,1.10
2018-02-18T03:46:56.288Z,1.10
2018-02-18T03:47:59.505Z,1.10
2018-02-18T03:49:02.724Z,1.10
2018-02-18T03:50:05.974Z,1.10
2018-02-18T03:51:09.208Z,1.00
2018-02-18T03:52:12.453Z,1.10
2018-02-18T03:53:15.744Z,1.00
2018-02-18T03:54:18.956Z,1.00
2018-02-18T03:55:22.245Z,0.90
2018-02-18T03:56:26.223Z,1.00
2018-02-18T03:57:29.445Z,0.90
2018-02-18T03:58:32.718Z,1.00
2018-02-18T03:59:36.745Z,1.10
2018-02-18T04:00:39.985Z,1.10
2018-02-18T04:01:43.192Z,1.10
2018-02-18T04:02:46.416Z,1.10
2018-02-18T04:03:49.664Z,1.10
2018-02-18T04:04:52.893Z,1.20
2018-02-18T04:05:56.120Z,1.10
2018-02-18T04:07:00.112Z,1.10
2018-02-18T04:08:04.093Z,1.10
2018-02-18T04:09:08.085Z,1.10
2018-02-18T04:10:11.443Z,1.10
2018-02-18T04:11:14.658Z,1.10
2018-02-18T04:12:17.884Z,1.10
2018-02-18T04:13:21.251Z,1.10
2018-02-18T04:14:25.224Z,1.00
2018-02-18T04:15:28.465Z,1.00
2018-02-18T04:16:31.696Z,1.00
2018-02-18T04:17:34.916Z,0.90
2018-02-18T04:18:38.150Z,0.90
2018-02-18T04:19:43.223Z,1.00
2018-02-18T04:20:46.463Z,1.00
2018-02-18T04:21:49.702Z,1.00
2018-02-18T04:22:52.939Z,1.00
2018-02-18T04:23:56.269Z,1.00
2018-02-18T04:24:59.489Z,0.90
2018-02-18T04:26:02.733Z,0.90
2018-02-18T04:27:05.954Z,0.90
2018-02-18T04:28:09.202Z,0.80
2018-02-18T04:29:12.437Z,0.80
2018-02-18T04:30:15.663Z,0.80
2018-02-18T04:31:19.098Z,0.80
2018-02-18T04:32:22.287Z,0.80
2018-02-18T04:33:25.518Z,1.00
2018-02-18T04:34:28.737Z,0.90
2018-02-18T04:35:32.021Z,0.90
2018-02-18T04:36:35.253Z,1.00
2018-02-18T04:37:38.486Z,1.00
2018-02-18T04:38:41.730Z,1.00
2018-02-18T04:39:44.950Z,0.90
2018-02-18T04:40:48.970Z,0.80
2018-02-18T04:41:52.190Z,0.80
2018-02-18T04:42:55.416Z,0.90
2018-02-18T04:43:58.683Z,0.90
2018-02-18T04:45:01.886Z,0.80
2018-02-18T04:46:05.133Z,0.80
2018-02-18T04:47:08.361Z,0.80
2018-02-18T04:48:11.585Z,0.80
2018-02-18T04:49:14.806Z,0.80
2018-02-18T04:50:18.042Z,0.90
2018-02-18T04:51:21.274Z,1.00
2018-02-18T04:52:24.517Z,1.00
2018-02-18T04:53:27.744Z,0.90
2018-02-18T04:54:30.981Z,0.90
2018-02-18T04:55:34.209Z,0.90
2018-02-18T04:56:37.516Z,0.90
2018-02-18T04:57:40.780Z,0.80
2018-02-18T04:58:44.037Z,0.80
2018-02-18T04:59:47.265Z,0.70
2018-02-18T05:00:51.266Z,0.70
2018-02-18T05:01:54.544Z,0.70
2018-02-18T05:02:57.766Z,0.70
2018-02-18T05:04:00.985Z,0.80
2018-02-18T05:05:04.214Z,0.90
2018-02-18T05:06:07.463Z,0.90
2018-02-18T05:07:10.695Z,0.90
2018-02-18T05:08:13.928Z,0.90
2018-02-18T05:09:17.147Z,1.00
2018-02-18T05:10:21.152Z,0.90
2018-02-18T05:11:24.381Z,0.90
2018-02-18T05:12:27.621Z,0.90
2018-02-18T05:13:30.855Z,1.00
2018-02-18T05:14:34.075Z,0.90
2018-02-18T05:15:38.078Z,0.90
2018-02-18T05:16:41.313Z,0.90
2018-02-18T05:17:44.554Z,0.90
2018-02-18T05:18:47.776Z,0.90
2018-02-18T05:19:51.017Z,0.90
2018-02-18T05:20:54.996Z,1.00
2018-02-18T05:21:58.253Z,1.00
2018-02-18T05:23:02.236Z,1.10
2018-02-18T05:24:06.348Z,1.00
2018-02-18T05:25:09.574Z,1.00
2018-02-18T05:26:12.821Z,1.00
2018-02-18T05:27:16.063Z,1.00
2018-02-18T05:28:19.294Z,1.10
2018-02-18T05:29:22.551Z,1.10
2018-02-18T05:30:26.555Z,1.10
2018-02-18T05:31:29.807Z,1.10
2018-02-18T05:32:33.018Z,1.00
2018-02-18T05:33:36.233Z,1.00
2018-02-18T05:34:39.485Z,1.00
2018-02-18T05:35:42.689Z,1.10
2018-02-18T05:36:45.954Z,1.10
2018-02-18T05:37:49.943Z,1.20
2018-02-18T05:38:53.185Z,1.20
2018-02-18T05:39:56.424Z,1.20
2018-02-18T05:41:00.405Z,1.20
2018-02-18T05:42:04.415Z,1.20
2018-02-18T05:43:08.405Z,1.30
2018-02-18T05:44:12.406Z,1.30
2018-02-18T05:45:15.716Z,1.30
2018-02-18T05:46:18.941Z,1.30
2018-02-18T05:47:22.172Z,1.30
2018-02-18T05:48:26.244Z,1.30
2018-02-18T05:49:29.472Z,1.30
2018-02-18T05:50:32.720Z,1.30
2018-02-18T05:51:35.935Z,1.30
2018-02-18T05:52:39.171Z,1.40
2018-02-18T05:53:42.458Z,1.30
2018-02-18T05:54:45.685Z,1.30
2018-02-18T05:55:48.903Z,1.30
2018-02-18T05:56:52.146Z,1.30
2018-02-18T05:57:56.184Z,1.20
2018-02-18T05:58:59.409Z,1.20
2018-02-18T06:00:02.664Z,1.20
2018-02-18T06:01:05.898Z,1.30
2018-02-18T06:02:09.875Z,1.30
2018-02-18T06:03:13.106Z,1.30
2018-02-18T06:04:16.338Z,1.30
2018-02-18T06:05:19.598Z,1.30
2018-02-18T06:06:23.013Z,1.30
2018-02-18T06:07:27.004Z,1.40
2018-02-18T06:08:30.314Z,1.40
2018-02-18T06:09:34.307Z,1.40
2018-02-18T06:10:38.299Z,1.40
2018-02-18T06:11:41.514Z,1.40
2018-02-18T06:12:44.738Z,1.40
2018-02-18T06:13:47.960Z,1.30
2018-02-18T06:14:51.957Z,1.40
2018-02-18T06:15:55.938Z,1.40
2018-02-18T06:16:59.172Z,1.40
2018-02-18T06:18:02.492Z,1.40
2018-02-18T06:19:05.691Z,1.40
2018-02-18T06:20:08.928Z,1.50
2018-02-18T06:21:12.238Z,1.40
2018-02-18T06:22:15.467Z,1.50
2018-02-18T06:23:18.768Z,1.40
2018-02-18T06:24:22.836Z,1.40
2018-02-18T06:25:26.837Z,1.40
2018-02-18T06:26:30.821Z,1.30
2018-02-18T06:27:34.070Z,1.30
2018-02-18T06:28:37.289Z,1.40
2018-02-18T06:29:40.561Z,1.40
2018-02-18T06:30:43.761Z,1.40
2018-02-18T06:31:46.975Z,1.40
2018-02-18T06:32:50.210Z,1.40
2018-02-18T06:33:54.938Z,1.30
2018-02-18T06:34:58.173Z,1.30
2018-02-18T06:36:01.416Z,1.30
2018-02-18T06:37:04.648Z,1.30
2018-02-18T06:38:07.890Z,1.30
2018-02-18T06:39:11.882Z,1.40
2018-02-18T06:40:15.877Z,1.40
2018-02-18T06:41:20.430Z,1.50
2018-02-18T06:42:23.666Z,1.50
2018-02-18T06:43:26.896Z,1.50
2018-02-18T06:44:30.138Z,1.50
2018-02-18T06:45:33.360Z,1.50
2018-02-18T06:46:36.589Z,1.50
2018-02-18T06:47:39.824Z,1.50
2018-02-18T06:48:43.048Z,1.50
2018-02-18T06:49:46.274Z,1.50
2018-02-18T06:50:50.271Z,1.40
2018-02-18T06:51:54.251Z,1.40
2018-02-18T06:52:57.484Z,1.40
2018-02-18T06:54:00.698Z,1.40
2018-02-18T06:55:03.934Z,1.40
2018-02-18T06:56:07.164Z,1.40
2018-02-18T06:57:10.366Z,1.40
2018-02-18T06:58:13.597Z,1.30
2018-02-18T06:59:16.834Z,1.30
2018-02-18T07:00:20.062Z,1.30
2018-02-18T07:01:23.306Z,1.40
2018-02-18T07:02:26.520Z,1.40
2018-02-18T07:03:29.759Z,1.30
2018-02-18T07:04:32.982Z,1.30
2018-02-18T07:05:36.250Z,1.30
2018-02-18T07:06:40.257Z,1.30
2018-02-18T07:07:43.503Z,1.30
2018-02-18T07:08:46.738Z,1.40
2018-02-18T07:09:50.001Z,1.40
2018-02-18T07:10:53.995Z,1.40
2018-02-18T07:11:58.002Z,1.30
2018-02-18T07:13:02.058Z,1.40
2018-02-18T07:14:05.256Z,1.40
2018-02-18T07:15:08.485Z,1.50
2018-02-18T07:16:11.732Z,1.50
2018-02-18T07:17:14.958Z,1.40
2018-02-18T07:18:18.205Z,1.40
2018-02-18T07:19:22.187Z,1.40
2018-02-18T07:20:25.412Z,1.40
2018-02-18T07:21:28.636Z,1.40
2018-02-18T07:22:31.867Z,1.40
2018-02-18T07:23:35.871Z,1.50
2018-02-18T07:24:39.894Z,1.50
2018-02-18T07:25:43.111Z,1.50
2018-02-18T07:26:46.357Z,1.50
2018-02-18T07:27:49.596Z,1.50
2018-02-18T07:28:52.814Z,1.50
2018-02-18T07:29:56.055Z,1.60
2018-02-18T07:30:59.307Z,1.60
2018-02-18T07:32:02.518Z,1.60
2018-02-18T07:33:05.760Z,1.50
2018-02-18T07:34:08.991Z,1.50
2018-02-18T07:35:12.347Z,1.50
2018-02-18T07:36:15.562Z,1.50
2018-02-18T07:37:19.570Z,1.50
2018-02-18T07:38:23.553Z,1.60
2018-02-18T07:39:26.776Z,1.60
2018-02-18T07:40:30.007Z,1.60
2018-02-18T07:41:33.256Z,1.60
2018-02-18T07:42:36.471Z,1.60
2018-02-18T07:43:39.704Z,1.60
2018-02-18T07:44:42.945Z,1.70
2018-02-18T07:45:46.177Z,1.70
2018-02-18T07:46:49.404Z,1.70
2018-02-18T07:47:52.643Z,1.70
2018-02-18T07:48:55.869Z,1.80
2018-02-18T07:49:59.097Z,1.80
2018-02-18T07:51:02.332Z,1.80
2018-02-18T07:52:05.562Z,1.70
2018-02-18T07:53:08.819Z,1.80
2018-02-18T07:54:12.115Z,1.80
2018-02-18T07:55:15.378Z,1.80
2018-02-18T07:56:18.703Z,1.80
2018-02-18T07:57:21.921Z,1.80
2018-02-18T07:58:25.936Z,1.80
2018-02-18T07:59:29.216Z,1.80
2018-02-18T08:00:32.452Z,1.80
2018-02-18T08:01:35.687Z,1.80
2018-02-18T08:02:39.680Z,1.80
2018-02-18T08:03:43.683Z,1.80
2018-02-18T08:04:47.057Z,1.90
2018-02-18T08:05:51.062Z,1.90
2018-02-18T08:06:55.058Z,1.90
2018-02-18T08:07:59.034Z,2.00
2018-02-18T08:09:03.046Z,2.00
2018-02-18T08:10:06.288Z,2.00
2018-02-18T08:11:09.503Z,2.00
2018-02-18T08:12:12.726Z,2.00
2018-02-18T08:13:15.945Z,2.10
2018-02-18T08:14:19.165Z,2.10
2018-02-18T08:15:23.157Z,2.10
2018-02-18T08:16:26.383Z,2.10
2018-02-18T08:17:29.609Z,2.10
2018-02-18T08:18:32.821Z,2.00
2018-02-18T08:19:36.814Z,2.10
2018-02-18T08:20:40.804Z,2.20
2018-02-18T08:21:44.013Z,2.20
2018-02-18T08:22:47.260Z,2.30
2018-02-18T08:23:50.486Z,2.40
2018-02-18T08:24:54.674Z,2.40
2018-02-18T08:25:57.917Z,2.40
2018-02-18T08:27:01.138Z,2.40
2018-02-18T08:28:04.358Z,2.30
2018-02-18T08:29:08.358Z,2.30
2018-02-18T08:30:12.365Z,2.40
2018-02-18T08:31:15.576Z,2.40
2018-02-18T08:32:18.798Z,2.40
2018-02-18T08:33:22.028Z,2.40
2018-02-18T08:34:26.033Z,2.50
2018-02-18T08:35:30.017Z,2.40
2018-02-18T08:36:34.028Z,2.40
2018-02-18T08:37:37.252Z,2.40
2018-02-18T08:38:40.469Z,2.50
2018-02-18T08:39:44.474Z,2.60
2018-02-18T08:40:48.456Z,2.60
2018-02-18T08:41:51.681Z,2.60
2018-02-18T08:42:54.983Z,2.70
2018-02-18T08:43:58.253Z,2.60
2018-02-18T08:45:01.480Z,2.60
2018-02-18T08:46:04.705Z,2.70
2018-02-18T08:47:08.701Z,2.70
2018-02-18T08:48:12.707Z,2.70
2018-02-18T08:49:16.718Z,2.80
2018-02-18T08:50:19.930Z,2.80
2018-02-18T08:51:23.158Z,2.90
2018-02-18T08:52:27.183Z,2.90
2018-02-18T08:53:30.398Z,2.90
2018-02-18T08:54:33.696Z,3.00
2018-02-18T08:55:36.964Z,3.10
2018-02-18T08:56:40.268Z,3.00
2018-02-18T08:57:44.251Z,3.10
2018-02-18T08:58:47.479Z,3.10
2018-02-18T08:59:50.699Z,3.00
2018-02-18T09:00:54.003Z,3.10
2018-02-18T09:01:57.234Z,3.00
2018-02-18T09:03:00.457Z,3.10
2018-02-18T09:04:03.691Z,3.10
2018-02-18T09:05:06.921Z,3.00
2018-02-18T09:06:10.161Z,3.10
2018-02-18T09:07:13.385Z,3.10
2018-02-18T09:08:16.598Z,3.10
2018-02-18T09:09:19.892Z,3.10
2018-02-18T09:10:23.109Z,3.10
2018-02-18T09:11:26.346Z,3.10
2018-02-18T09:12:29.705Z,3.10
2018-02-18T09:13:32.970Z,3.10
2018-02-18T09:14:36.265Z,3.20
2018-02-18T09:15:39.502Z,3.20
2018-02-18T09:16:42.774Z,3.20
2018-02-18T09:17:46.014Z,3.20
2018-02-18T09:18:49.229Z,3.10
2018-02-18T09:19:53.258Z,3.20
2018-02-18T09:20:56.478Z,3.20
2018-02-18T09:21:59.714Z,3.20
2018-02-18T09:23:02.946Z,3.20
2018-02-18T09:24:06.188Z,3.10
2018-02-18T09:25:09.398Z,2.90
2018-02-18T09:26:12.629Z,3.00
2018-02-18T09:27:16.647Z,3.10
2018-02-18T09:28:19.891Z,3.10
2018-02-18T09:29:23.126Z,3.10
2018-02-18T09:30:26.352Z,3.10
2018-02-18T09:31:29.574Z,3.10
2018-02-18T09:32:32.858Z,3.00
2018-02-18T09:33:36.109Z,2.90
2018-02-18T09:34:39.370Z,2.90
2018-02-18T09:35:42.592Z,2.80
2018-02-18T09:36:46.584Z,2.70
2018-02-18T09:37:49.886Z,2.70
2018-02-18T09:38:53.129Z,2.80
2018-02-18T09:39:56.353Z,2.80
2018-02-18T09:41:00.342Z,2.70
2018-02-18T09:42:04.334Z,2.70
2018-02-18T09:43:08.363Z,2.80
2018-02-18T09:44:11.595Z,2.80
2018-02-18T09:45:14.827Z,2.70
2018-02-18T09:46:18.062Z,2.80
2018-02-18T09:47:21.303Z,2.90
2018-02-18T09:48:24.538Z,3.00
2018-02-18T09:49:27.768Z,3.40
2018-02-18T09:50:31.000Z,3.70
2018-02-18T09:51:34.235Z,3.80
2018-02-18T09:52:37.467Z,4.20
2018-02-18T09:53:40.814Z,4.20
2018-02-18T09:54:44.192Z,4.00
2018-02-18T09:55:47.428Z,4.00
2018-02-18T09:56:51.446Z,3.80
2018-02-18T09:57:54.785Z,3.80
2018-02-18T09:58:58.007Z,3.70
2018-02-18T10:00:01.993Z,3.70
2018-02-18T10:01:05.218Z,3.60
2018-02-18T10:02:08.457Z,3.50
2018-02-18T10:03:11.689Z,3.60
2018-02-18T10:04:14.923Z,3.50
2018-02-18T10:05:18.255Z,3.50
2018-02-18T10:06:21.497Z,3.40
2018-02-18T10:07:25.496Z,3.30
2018-02-18T10:08:28.732Z,3.30
2018-02-18T10:09:31.964Z,3.30
2018-02-18T10:10:35.221Z,3.20
2018-02-18T10:11:38.482Z,3.10
2018-02-18T10:12:41.749Z,3.20
2018-02-18T10:13:44.985Z,3.20
2018-02-18T10:14:49.709Z,3.10
2018-02-18T10:15:52.935Z,3.10
2018-02-18T10:16:56.166Z,3.10
2018-02-18T10:17:59.421Z,3.10
2018-02-18T10:19:02.869Z,3.10
2018-02-18T10:20:06.259Z,3.10
2018-02-18T10:21:10.238Z,3.10
2018-02-18T10:22:13.483Z,3.10
2018-02-18T10:23:16.856Z,3.10
2018-02-18T10:24:20.084Z,3.10
2018-02-18T10:25:23.305Z,3.00
2018-02-18T10:26:26.541Z,3.10
2018-02-18T10:27:29.777Z,3.10
2018-02-18T10:28:33.023Z,3.10
2018-02-18T10:29:36.253Z,3.20
2018-02-18T10:30:39.524Z,3.30
2018-02-18T10:31:42.754Z,3.30
2018-02-18T10:32:45.983Z,3.30
2018-02-18T10:33:49.224Z,3.20
2018-02-18T10:34:53.216Z,3.20
2018-02-18T10:35:57.282Z,3.20
2018-02-18T10:37:00.513Z,3.10
2018-02-18T10:38:03.739Z,3.10
2018-02-18T10:39:06.976Z,3.00
2018-02-18T10:40:10.216Z,3.00
2018-02-18T10:41:13.495Z,3.00
2018-02-18T10:42:16.737Z,3.00
2018-02-18T10:43:20.794Z,3.00
2018-02-18T10:44:24.005Z,3.00
2018-02-18T10:45:27.261Z,3.00
2018-02-18T10:46:30.732Z,3.00
2018-02-18T10:47:34.035Z,3.10
2018-02-18T10:48:37.276Z,3.10
2018-02-18T10:49:41.295Z,3.10
2018-02-18T10:50:44.550Z,3.10
2018-02-18T10:51:47.806Z,3.10
2018-02-18T10:52:51.039Z,3.10
2018-02-18T10:53:54.269Z,3.10
2018-02-18T10:54:57.498Z,3.00
2018-02-18T10:56:00.769Z,3.00
2018-02-18T10:57:04.763Z,3.10
2018-02-18T10:58:08.935Z,3.10
2018-02-18T10:59:12.166Z,3.10
2018-02-18T11:00:16.199Z,3.10
2018-02-18T11:01:19.557Z,3.10
2018-02-18T11:02:22.850Z,3.20
2018-02-18T11:03:26.094Z,3.30
2018-02-18T11:04:29.333Z,3.40
2018-02-18T11:05:32.559Z,3.40
2018-02-18T11:06:35.806Z,3.40
2018-02-18T11:07:39.030Z,3.30
2018-02-18T11:08:42.307Z,3.40
2018-02-18T11:09:45.667Z,3.40
2018-02-18T11:10:48.968Z,3.30
2018-02-18T11:11:52.159Z,3.30
2018-02-18T11:12:56.167Z,3.40
2018-02-18T11:14:00.895Z,3.40
2018-02-18T11:15:04.928Z,3.40
2018-02-18T11:16:08.244Z,3.40
2018-02-18T11:17:11.501Z,3.40
2018-02-18T11:18:14.736Z,3.40
2018-02-18T11:19:17.970Z,3.40
2018-02-18T11:20:21.196Z,3.40
2018-02-18T11:21:24.421Z,3.40
2018-02-18T11:22:27.741Z,3.40
2018-02-18T11:23:31.151Z,3.40
2018-02-18T11:24:34.393Z,3.40
2018-02-18T11:25:37.785Z,3.40
2018-02-18T11:26:41.018Z,3.60
2018-02-18T11:27:45.058Z,3.60
2018-02-18T11:28:48.293Z,3.60
2018-02-18T11:29:52.331Z,3.60
2018-02-18T11:30:56.336Z,3.70
2018-02-18T11:32:00.874Z,3.60
2018-02-18T11:33:04.123Z,3.70
2018-02-18T11:34:07.363Z,3.60
2018-02-18T11:35:10.829Z,3.60
2018-02-18T11:36:14.099Z,3.60
2018-02-18T11:37:17.565Z,3.60
2018-02-18T11:38:20.830Z,3.60
2018-02-18T11:39:24.828Z,3.60
2018-02-18T11:40:28.066Z,3.60
2018-02-18T11:41:31.346Z,3.60
2018-02-18T11:42:34.574Z,3.60
2018-02-18T11:43:38.604Z,3.40
2018-02-18T11:44:41.853Z,3.40
2018-02-18T11:45:45.091Z,3.40
2018-02-18T11:46:48.322Z,3.40
2018-02-18T11:47:52.340Z,3.40
2018-02-18T11:48:56.338Z,3.40
2018-02-18T11:50:00.346Z,3.40
2018-02-18T11:51:04.351Z,3.40
2018-02-18T11:52:08.334Z,3.50
2018-02-18T11:53:12.343Z,3.50
2018-02-18T11:54:16.353Z,3.50
2018-02-18T11:55:19.642Z,3.50
2018-02-18T11:56:22.886Z,3.50
2018-02-18T11:57:26.114Z,3.50
2018-02-18T11:58:29.347Z,3.40
2018-02-18T11:59:32.579Z,3.40
2018-02-18T12:00:35.884Z,3.30
2018-02-18T12:01:39.147Z,3.30
2018-02-18T12:02:42.363Z,3.30
2018-02-18T12:03:45.650Z,3.20
2018-02-18T12:04:48.828Z,3.20
2018-02-18T12:05:52.060Z,3.20
2018-02-18T12:06:55.294Z,3.40
2018-02-18T12:07:58.539Z,3.40
2018-02-18T12:09:01.757Z,3.40
2018-02-18T12:10:05.129Z,3.50
2018-02-18T12:11:08.360Z,3.40
2018-02-18T12:12:12.379Z,3.40
2018-02-18T12:13:15.689Z,3.40
2018-02-18T12:14:18.947Z,3.50
2018-02-18T12:15:22.173Z,3.70
2018-02-18T12:16:25.431Z,3.90
2018-02-18T12:17:28.674Z,3.80
2018-02-18T12:18:31.904Z,3.80
2018-02-18T12:19:35.135Z,3.70
2018-02-18T12:20:38.380Z,3.60
2018-02-18T12:21:41.628Z,3.60
2018-02-18T12:22:45.648Z,3.50
2018-02-18T12:23:48.878Z,3.40
2018-02-18T12:24:52.113Z,3.50
2018-02-18T12:25:55.346Z,3.40
2018-02-18T12:26:59.384Z,3.30
2018-02-18T12:28:02.673Z,3.30
2018-02-18T12:29:05.919Z,3.30
2018-02-18T12:30:09.176Z,3.40
2018-02-18T12:31:12.466Z,3.40
2018-02-18T12:32:15.733Z,3.40
2018-02-18T12:33:18.990Z,3.40
2018-02-18T12:34:22.288Z,3.40
2018-02-18T12:35:25.517Z,3.50
2018-02-18T12:36:28.761Z,3.50
2018-02-18T12:37:32.117Z,3.60
2018-02-18T12:38:36.125Z,3.70
2018-02-18T12:39:39.355Z,3.70
2018-02-18T12:40:42.602Z,3.70
2018-02-18T12:41:45.878Z,3.70
2018-02-18T12:42:49.112Z,3.70
2018-02-18T12:43:52.351Z,3.80
2018-02-18T12:44:55.595Z,3.90
2018-02-18T12:45:59.589Z,4.00
2018-02-18T12:47:02.805Z,3.90
2018-02-18T12:48:06.053Z,3.90
2018-02-18T12:49:10.074Z,3.90
2018-02-18T12:50:14.084Z,3.90
2018-02-18T12:51:18.341Z,4.00
2018-02-18T12:52:23.014Z,4.00
2018-02-18T12:53:26.253Z,4.00
2018-02-18T12:54:29.478Z,4.00
2018-02-18T12:55:32.718Z,3.90
2018-02-18T12:56:35.965Z,3.90
2018-02-18T12:57:39.319Z,3.90
2018-02-18T12:58:42.574Z,4.00
2018-02-18T12:59:45.812Z,3.90
2018-02-18T13:00:49.051Z,3.80
2018-02-18T13:01:53.089Z,3.80
2018-02-18T13:02:56.726Z,3.80
2018-02-18T13:03:59.966Z,3.80
2018-02-18T13:05:03.223Z,3.80
2018-02-18T13:06:07.242Z,3.90
2018-02-18T13:07:10.459Z,3.90
2018-02-18T13:08:13.714Z,3.80
2018-02-18T13:09:16.967Z,3.70
2018-02-18T13:10:20.989Z,3.70
2018-02-18T13:11:24.320Z,3.70
2018-02-18T13:12:27.562Z,3.70
2018-02-18T13:13:30.962Z,3.70
2018-02-18T13:14:34.180Z,3.70
2018-02-18T13:15:37.432Z,3.70
2018-02-18T13:16:41.593Z,3.70
2018-02-18T13:17:44.823Z,3.70
2018-02-18T13:18:48.102Z,3.70
2018-02-18T13:19:51.334Z,3.70
2018-02-18T13:20:55.266Z,3.70
2018-02-18T13:21:59.277Z,3.70
2018-02-18T13:23:02.517Z,3.70
2018-02-18T13:24:06.658Z,3.60
2018-02-18T13:25:09.925Z,3.50
2018-02-18T13:26:13.225Z,3.60
2018-02-18T13:27:16.452Z,3.70
2018-02-18T13:28:19.679Z,3.80
2018-02-18T13:29:23.684Z,3.80
2018-02-18T13:30:26.923Z,3.80
2018-02-18T13:31:30.170Z,3.60
2018-02-18T13:32:33.526Z,3.50
2018-02-18T13:33:36.673Z,3.30
2018-02-18T13:34:39.924Z,3.30
2018-02-18T13:35:43.144Z,3.30
2018-02-18T13:36:46.367Z,3.30
2018-02-18T13:37:49.631Z,3.30
2018-02-18T13:38:52.852Z,3.20
2018-02-18T13:39:56.112Z,3.20
2018-02-18T13:40:59.377Z,3.20
2018-02-18T13:42:03.405Z,3.30
2018-02-18T13:43:06.650Z,3.30
2018-02-18T13:44:10.673Z,3.20
2018-02-18T13:45:14.665Z,3.20
2018-02-18T13:46:18.666Z,3.20
2018-02-18T13:47:22.656Z,3.10
2018-02-18T13:48:26.646Z,3.20
2018-02-18T13:49:29.872Z,3.20
2018-02-18T13:50:33.104Z,3.30
2018-02-18T13:51:36.342Z,3.30
2018-02-18T13:52:39.585Z,3.20
2018-02-18T13:53:42.805Z,3.20
2018-02-18T13:54:46.049Z,3.20
2018-02-18T13:55:49.281Z,3.20
2018-02-18T13:56:52.515Z,3.10
2018-02-18T13:57:55.749Z,3.10
2018-02-18T13:58:59.066Z,3.20
2018-02-18T14:00:02.352Z,3.20
2018-02-18T14:01:05.542Z,3.20
2018-02-18T14:02:08.787Z,3.30
2018-02-18T14:03:12.014Z,3.30
2018-02-18T14:04:16.034Z,3.30